• Join FlightAware (Why Join?)
  • Login
  • US Flag 
10:04PM EDT


 

Airport Tracker/Info


-or-


 

Live Flight TrackerFlight Track Log ✈ CSN6511 ✈ 07-Mar-2014 ✈ ZGSZ / SZX - ZHLY / LYA

Flight Track Log - Related Links

Times and Time Zones

All times are in EST time to prevent confusion due to time zone crossing. See the CSN6511 flight status page for this flight to view local times or setup timezone preferences in your user account.

Time Position Orientation Groundspeed Altitude Reporting Facility
EST Latitude Longitude Course Direction KTS MPH feet Rate Location/Type
01:53AM 22.7515 113.8006 354° North  Level Estimated
01:54AM 22.8636 113.7887 354° North  Level Estimated
01:55AM 22.9756 113.7769 354° North  Level Estimated
01:56AM 23.0877 113.7650 354° North  Level Estimated
01:57AM 23.1967 113.7534 354° North  Level Estimated
01:58AM 23.3057 113.7418 354° North  Level Estimated
01:59AM 23.4138 113.7303 354° North  Level Estimated
02:00AM 23.5218 113.7187 354° North  Level Estimated
02:01AM 23.6299 113.7072 354° North  Level Estimated
02:02AM 23.7379 113.6956 354° North  Level Estimated
02:03AM 23.8459 113.6840 354° North  Level Estimated
02:04AM 23.9540 113.6724 354° North  Level Estimated
02:05AM 24.0620 113.6607 354° North  Level Estimated
02:06AM 24.1700 113.6491 354° North  Level Estimated
02:07AM 24.2781 113.6374 354° North  Level Estimated
02:08AM 24.3861 113.6257 354° North  Level Estimated
02:09AM 24.4942 113.6140 354° North  Level Estimated
02:10AM 24.6022 113.6022 354° North  Level Estimated
02:11AM 24.7102 113.5905 354° North  Level Estimated
02:12AM 24.8183 113.5787 354° North  Level Estimated
02:13AM 24.9263 113.5669 354° North  Level Estimated
02:14AM 25.0343 113.5551 354° North  Level Estimated
02:15AM 25.1424 113.5433 354° North  Level Estimated
02:16AM 25.2504 113.5314 354° North  Level Estimated
02:17AM 25.3584 113.5195 354° North  Level Estimated
02:18AM 25.4664 113.5076 354° North  Level Estimated
02:19AM 25.5745 113.4957 354° North  Level Estimated
02:20AM 25.6825 113.4838 354° North  Level Estimated
02:21AM 25.7905 113.4718 354° North  Level Estimated
02:22AM 25.8986 113.4598 354° North  Level Estimated
02:23AM 26.0066 113.4478 354° North  Level Estimated
02:24AM 26.1146 113.4358 354° North  Level Estimated
02:25AM 26.2226 113.4237 354° North  Level Estimated
02:26AM 26.3306 113.4116 354° North  Level Estimated
02:27AM 26.4387 113.3995 354° North  Level Estimated
02:28AM 26.5467 113.3874 354° North  Level Estimated
02:29AM 26.6547 113.3753 354° North  Level Estimated
02:30AM 26.7627 113.3631 354° North  Level Estimated
02:31AM 26.8707 113.3509 354° North  Level Estimated
02:32AM 26.9787 113.3387 354° North  Level Estimated
02:33AM 27.0868 113.3265 354° North  Level Estimated
02:34AM 27.1948 113.3142 354° North  Level Estimated
02:35AM 27.3028 113.3019 354° North  Level Estimated
02:36AM 27.4108 113.2896 354° North  Level Estimated
02:37AM 27.5188 113.2773 354° North  Level Estimated
02:38AM 27.6268 113.2649 354° North  Level Estimated
02:39AM 27.7348 113.2525 354° North  Level Estimated
02:40AM 27.8428 113.2401 354° North  Level Estimated
02:41AM 27.9508 113.2277 354° North  Level Estimated
02:42AM 28.0588 113.2152 354° North  Level Estimated
02:43AM 28.1668 113.2028 354° North  Level Estimated
02:44AM 28.2748 113.1902 354° North  Level Estimated
02:45AM 28.3828 113.1777 354° North  Level Estimated
02:46AM 28.4908 113.1652 354° North  Level Estimated
02:47AM 28.5988 113.1526 354° North  Level Estimated
02:48AM 28.7068 113.1400 354° North  Level Estimated
02:49AM 28.8148 113.1273 354° North  Level Estimated
02:50AM 28.9228 113.1147 354° North  Level Estimated
02:51AM 29.0308 113.1020 354° North  Level Estimated
02:52AM 29.1388 113.0893 354° North  Level Estimated
02:53AM 29.2468 113.0765 354° North  Level Estimated
02:54AM 29.3548 113.0638 354° North  Level Estimated
02:55AM 29.4628 113.0510 354° North  Level Estimated
02:56AM 29.5707 113.0381 354° North  Level Estimated
02:57AM 29.6787 113.0253 354° North  Level Estimated
02:58AM 29.7867 113.0124 354° North  Level Estimated
02:59AM 29.8947 112.9995 354° North  Level Estimated
03:00AM 30.0027 112.9866 354° North  Level Estimated
03:01AM 30.1107 112.9736 354° North  Level Estimated
03:02AM 30.2186 112.9606 354° North  Level Estimated
03:03AM 30.3266 112.9476 354° North  Level Estimated
03:04AM 30.4346 112.9346 354° North  Level Estimated
03:05AM 30.5426 112.9215 354° North  Level Estimated
03:06AM 30.6505 112.9084 354° North  Level Estimated
03:07AM 30.7585 112.8952 354° North  Level Estimated
03:08AM 30.8665 112.8821 354° North  Level Estimated
03:09AM 30.9745 112.8689 354° North  Level Estimated
03:10AM 31.0824 112.8557 354° North  Level Estimated
03:11AM 31.1904 112.8424 354° North  Level Estimated
03:12AM 31.2984 112.8291 354° North  Level Estimated
03:13AM 31.4063 112.8158 354° North  Level Estimated
03:14AM 31.5143 112.8025 354° North  Level Estimated
03:15AM 31.6222 112.7891 354° North  Level Estimated
03:16AM 31.7302 112.7757 354° North  Level Estimated
03:17AM 31.8382 112.7623 354° North  Level Estimated
03:18AM 31.9461 112.7488 354° North  Level Estimated
03:19AM 32.0541 112.7353 354° North  Level Estimated
03:20AM 32.1620 112.7217 354° North  Level Estimated
03:21AM 32.2700 112.7082 354° North  Level Estimated
03:22AM 32.3779 112.6946 354° North  Level Estimated
03:23AM 32.4859 112.6809 354° North  Level Estimated
03:24AM 32.5938 112.6673 354° North  Level Estimated
03:25AM 32.7018 112.6536 354° North  Level Estimated
03:26AM 32.8097 112.6399 354° North  Level Estimated
03:27AM 32.9177 112.6261 354° North  Level Estimated
03:28AM 33.0256 112.6123 354° North  Level Estimated
03:29AM 33.1336 112.5985 354° North  Level Estimated
03:30AM 33.2415 112.5846 354° North  Level Estimated
03:31AM 33.3494 112.5707 354° North  Level Estimated
03:32AM 33.4574 112.5568 354° North  Level Estimated
03:33AM 33.5653 112.5428 354° North  Level Estimated
03:34AM 33.6732 112.5288 354° North  Level Estimated
03:35AM 33.7812 112.5148 354° North  Level Estimated
03:36AM 33.8891 112.5007 354° North  Level Estimated
03:37AM 33.9970 112.4866 354° North  Level Estimated
03:38AM 34.1050 112.4725 354° North  Level Estimated
03:39AM 34.2129 112.4583 354° North  Level Estimated
03:40AM 34.3208 112.4441 354° North  Level Estimated
03:41AM 34.4287 112.4298 354° North  Level Estimated
03:42AM 34.5367 112.4155 354° North  Level Estimated
03:43AM 34.6446 112.4012 354° North  Level Estimated
03:44AM 34.7411 112.3883 354° North  Level Estimated
03:45AM 34.7411 112.3883 North  Level Estimated
03:46AM 34.7411 112.3883 North  Level Estimated
03:47AM 34.7411 112.3883 North  Level Estimated
03:48AM 34.7411 112.3883 North  Level Estimated
03:49AM 34.7411 112.3883 North  Level Estimated
03:50AM 34.7411 112.3883 North  Level Estimated
03:51AM 34.7411 112.3883 North  Level Estimated
03:52AM 34.7411 112.3883 North  Level Estimated
03:53AM 34.7411 112.3883 North  Level Estimated
03:54AM 34.7411 112.3883 North  Level Estimated
03:55AM 34.7411 112.3883 North  Level Estimated